Sunday, August 28, 2016, 11:34 PM EDT

KSBY, Salisbury-wicomico Cty Reg

Location: Salisbury, MD, United States Lat: 38.333
Local Time: 11:34 PM EDT ( 3:34 GMT) Lon: -75.5
Time Zone: US/Eastern Elev: 52 ft

Show me the last for .
Show Decoded

2016-08-28 22:54 METAR KSBY 290254Z AUTO 00000KT 10SM CLR 21/19 A3018 RMK AO2 SLP222 T02060189
                 53006 TSNO $ =
2016-08-28 21:54 METAR KSBY 290154Z 00000KT 10SM CLR 21/19 A3016 RMK AO2 SLP215 T02110189 $ =
2016-08-28 20:54 METAR KSBY 290054Z 00000KT 10SM CLR 22/19 A3016 RMK AO2 SLP214 T02170189 $ =
2016-08-28 19:54 METAR KSBY 282354Z 07003KT 10SM CLR 24/19 A3016 RMK AO2 SLP216 T02390189 10300
                 20239 55000 $ =
2016-08-28 18:54 METAR KSBY 282254Z 08007KT 10SM CLR 26/18 A3016 RMK AO2 SLP215 T02610178 $ =
2016-08-28 17:54 METAR KSBY 282154Z 09007KT 10SM CLR 28/17 A3016 RMK AO2 SLP215 T02780172 $ =
2016-08-28 16:54 METAR KSBY 282054Z 10011KT 10SM CLR 29/17 A3016 RMK AO2 SLP217 T02890167 58019 $
                 =
2016-08-28 15:54 METAR KSBY 281954Z 05013KT 10SM CLR 29/16 A3018 RMK AO2 SLP223 T02940156 $ =
2016-08-28 14:54 METAR KSBY 281854Z 10009KT 10SM CLR 29/17 A3020 RMK AO2 SLP229 T02940172 $ =
2016-08-28 13:54 METAR KSBY 281754Z 09010KT 10SM CLR 30/17 A3022 RMK AO2 SLP235 T03000172 10306
                 20228 55004 $ =
2016-08-28 12:54 METAR KSBY 281654Z 10013KT 10SM CLR 29/17 A3022 RMK AO2 SLP234 T02940167 $ =
2016-08-28 11:54 METAR KSBY 281554Z 08011KT 10SM CLR 29/18 A3023 RMK AO2 SLP237 T02940178 $ =
2016-08-28 10:54 METAR KSBY 281454Z 08010KT 10SM CLR 28/19 A3023 RMK AO2 SLP240 T02830194 51004 $
                 =
2016-08-28 09:54 METAR KSBY 281354Z 07006KT 10SM CLR 26/22 A3023 RMK AO2 SLP239 T02610217 $ =
2016-08-28 08:54 METAR KSBY 281254Z 05005KT 10SM CLR 25/22 A3023 RMK AO2 SLP240 T02500217 $ =
2016-08-28 07:54 METAR KSBY 281154Z 02005KT 10SM CLR 23/21 A3022 RMK AO2 SLP235 T02280211 10228
                 20194 53013 $ =
2016-08-28 06:54 METAR KSBY 281054Z 00000KT 7SM CLR 21/20 A3020 RMK AO2 SLP230 MIFG SE-SW
                 T02060200 $ =
2016-08-28 06:33 METAR KSBY 281033Z 04004KT 7SM CLR 20/19 A3020 RMK AO2 MIFG SE-SW T02000189 $ =
2016-08-28 06:25 METAR KSBY 281025Z 02003KT 1 3/4SM BR CLR 20/19 A3020 RMK AO2 T02000194 $ =
2016-08-28 06:08 METAR KSBY 281008Z 00000KT 9SM FEW010 19/19 A3019 RMK AO2 T01940189 $ =
2016-08-28 05:54 METAR KSBY 280954Z 00000KT 3SM BR BKN009 20/19 A3018 RMK AO2 SLP223 T02000194 $
                 =
2016-08-28 05:49 METAR KSBY 280949Z 00000KT 5SM BR SCT009 20/19 A3018 RMK AO2 $ =
2016-08-28 05:44 METAR KSBY 280944Z 00000KT 9SM BKN010 20/19 A3018 RMK AO2 T02000194 $ =
2016-08-28 04:54 METAR KSBY 280854Z AUTO 00000KT 7SM CLR 21/20 A3018 RMK AO2 SLP222 T02060200
                 53000 TSNO $ =
2016-08-28 04:34 METAR KSBY 280834Z AUTO 00000KT 7SM SCT008 21/20 A3018 RMK AO2 T02060200 TSNO $
                 =
2016-08-28 04:26 METAR KSBY 280826Z AUTO 00000KT 2SM BR SCT008 20/20 A3017 RMK AO2 T02000200 TSNO
                 $ =
2016-08-28 04:17 METAR KSBY 280817Z AUTO 00000KT 1 3/4SM BR BKN008 20/20 A3017 RMK AO2 VIS 3/4V5
                 T02000200 TSNO $ =
2016-08-28 04:13 METAR KSBY 280813Z AUTO 00000KT 5SM BR SCT008 20/20 A3017 RMK AO2 T02000200 TSNO
                 $ =
2016-08-28 03:54 METAR KSBY 280754Z AUTO 00000KT 6SM BR FEW010 21/20 A3017 RMK AO2 SLP218
                 T02060200 TSNO $ =
2016-08-28 03:37 METAR KSBY 280737Z AUTO 00000KT 4SM BR SCT010 21/20 A3017 RMK AO2 T02060200 TSNO
                 $ =
2016-08-28 03:35 METAR KSBY 280735Z AUTO 00000KT 1 1/2SM BR SCT010 21/20 A3017 RMK AO2 T02060200
                 TSNO $ =
2016-08-28 03:26 METAR KSBY 280726Z AUTO 05004KT 3/4SM BR VV010 21/20 A3017 RMK AO2 T02060200
                 TSNO $ =
2016-08-28 03:12 METAR KSBY 280712Z AUTO 00000KT 1 1/2SM BR FEW010 21/20 A3018 RMK AO2 T02060200
                 TSNO $ =
2016-08-28 02:54 METAR KSBY 280654Z AUTO 00000KT 5SM BR CLR 21/21 A3018 RMK AO2 SLP222 T02110206
                 TSNO $ =
2016-08-28 01:54 METAR KSBY 280554Z AUTO 06004KT 8SM CLR 22/21 A3018 RMK AO2 SLP222 T02170211
                 10244 20211 58005 TSNO $ =
2016-08-28 00:54 METAR KSBY 280454Z AUTO 05004KT 7SM CLR 22/21 A3019 RMK AO2 SLP227 T02170211
                 403170217 TSNO $ =
2016-08-27 23:54 METAR KSBY 280354Z AUTO 07003KT 8SM CLR 22/22 A3020 RMK AO2 SLP230 T02220217
                 TSNO $ =

Support USWX by starting your Amazon purchase here.